createdAt,value
2022-08-21T00:00:29.624Z,19.60
2022-08-21T00:03:09.883Z,19.60
2022-08-21T00:05:42.017Z,19.60
2022-08-21T00:08:10.965Z,20.10
2022-08-21T00:15:38.489Z,20.00
2022-08-21T00:18:09.299Z,17.90
2022-08-21T00:35:37.169Z,19.20
2022-08-21T00:38:09.138Z,20.50
2022-08-21T00:43:13.104Z,19.40
2022-08-21T00:50:45.722Z,20.20
2022-08-21T00:53:14.626Z,19.30
2022-08-21T00:55:43.093Z,19.30
2022-08-21T00:58:13.860Z,19.50
2022-08-21T01:00:45.186Z,19.10
2022-08-21T01:03:23.702Z,19.20
2022-08-21T01:08:22.058Z,19.30
2022-08-21T01:13:25.546Z,19.70
2022-08-21T01:15:57.633Z,19.40
2022-08-21T01:21:27.976Z,18.80
2022-08-21T01:23:58.370Z,19.10
2022-08-21T01:26:33.784Z,19.00
2022-08-21T01:39:06.585Z,19.20
2022-08-21T01:48:57.535Z,19.90
2022-08-21T01:53:52.196Z,19.40
2022-08-21T01:58:48.683Z,19.20
2022-08-21T02:03:44.522Z,19.00
2022-08-21T02:06:18.758Z,19.30
2022-08-21T02:08:47.475Z,19.30
2022-08-21T02:13:42.484Z,18.50
2022-08-21T02:26:09.579Z,20.40
2022-08-21T02:31:07.055Z,19.10
2022-08-21T02:33:34.780Z,18.60
2022-08-21T02:36:04.097Z,19.10
2022-08-21T02:38:39.327Z,19.10
2022-08-21T02:41:12.248Z,19.10
2022-08-21T02:46:09.824Z,19.10
2022-08-21T02:56:09.850Z,19.20
2022-08-21T03:01:12.596Z,19.20
2022-08-21T03:03:44.301Z,19.30
2022-08-21T03:06:16.329Z,19.30
2022-08-21T03:11:14.700Z,19.20
2022-08-21T03:13:43.842Z,19.70
2022-08-21T03:23:35.620Z,19.30
2022-08-21T03:26:02.787Z,19.40
2022-08-21T03:36:06.842Z,19.00
2022-08-21T03:38:36.855Z,19.40
2022-08-21T03:41:05.653Z,19.20
2022-08-21T03:43:33.366Z,19.30
2022-08-21T03:48:30.782Z,19.70
2022-08-21T04:00:57.565Z,19.20
2022-08-21T04:03:26.915Z,18.50
2022-08-21T04:08:21.548Z,18.90
2022-08-21T04:10:53.087Z,19.40
2022-08-21T04:15:49.408Z,19.40
2022-08-21T04:18:16.746Z,19.20
2022-08-21T04:20:50.110Z,19.40
2022-08-21T04:25:54.366Z,19.00
2022-08-21T04:28:28.920Z,19.40
2022-08-21T04:30:58.243Z,20.70
2022-08-21T04:38:22.816Z,19.50
2022-08-21T04:40:51.048Z,19.20
2022-08-21T04:48:22.028Z,19.20
2022-08-21T04:56:01.895Z,19.40
2022-08-21T04:58:30.399Z,19.50
2022-08-21T05:01:01.163Z,19.50
2022-08-21T05:03:32.266Z,19.70
2022-08-21T05:08:29.211Z,19.50
2022-08-21T05:15:56.822Z,18.50
2022-08-21T05:35:40.507Z,19.70
2022-08-21T05:38:16.895Z,19.70
2022-08-21T05:48:19.477Z,19.60
2022-08-21T05:50:49.829Z,19.80
2022-08-21T05:53:22.827Z,19.70
2022-08-21T05:58:22.757Z,19.60
2022-08-21T06:00:52.043Z,19.20
2022-08-21T06:03:27.718Z,19.70
2022-08-21T06:10:54.016Z,19.50
2022-08-21T06:13:23.002Z,18.90
2022-08-21T06:20:47.202Z,19.10
2022-08-21T06:25:41.862Z,19.90
2022-08-21T06:28:11.405Z,19.90
2022-08-21T06:30:40.215Z,20.20
2022-08-21T06:33:08.297Z,19.10
2022-08-21T06:40:34.972Z,19.90
2022-08-21T06:43:15.102Z,20.00
2022-08-21T06:53:16.577Z,19.10
2022-08-21T07:00:43.700Z,20.40
2022-08-21T07:10:50.413Z,20.20
2022-08-21T07:23:28.457Z,20.50
2022-08-21T07:28:23.662Z,21.10
2022-08-21T07:31:00.223Z,20.60
2022-08-21T07:33:31.551Z,21.90
2022-08-21T07:38:27.030Z,21.10
2022-08-21T07:40:59.793Z,20.50
2022-08-21T07:45:55.411Z,19.70
2022-08-21T07:48:23.503Z,20.50
2022-08-21T07:53:19.398Z,21.50
2022-08-21T08:00:42.417Z,20.70
2022-08-21T08:05:40.969Z,21.40
2022-08-21T08:10:38.086Z,20.80
2022-08-21T08:15:38.770Z,21.10
2022-08-21T08:25:36.199Z,21.20
2022-08-21T08:28:16.358Z,21.20
2022-08-21T08:33:14.211Z,20.10
2022-08-21T08:35:45.709Z,21.30
2022-08-21T08:41:18.708Z,21.50
2022-08-21T08:44:05.034Z,21.60
2022-08-21T08:46:41.732Z,21.70
2022-08-21T08:49:24.191Z,22.00
2022-08-21T08:52:36.252Z,22.00
2022-08-21T08:55:09.795Z,21.60
2022-08-21T08:57:39.324Z,22.20
2022-08-21T09:00:12.451Z,22.30
2022-08-21T09:02:46.546Z,22.40
2022-08-21T09:05:45.515Z,21.30
2022-08-21T09:08:51.142Z,22.30
2022-08-21T09:11:49.926Z,21.90
2022-08-21T09:14:58.978Z,22.50
2022-08-21T09:18:07.700Z,21.80
2022-08-21T09:21:47.616Z,22.30
2022-08-21T09:24:34.533Z,22.70
2022-08-21T09:27:19.387Z,22.60
2022-08-21T09:29:52.084Z,21.60
2022-08-21T09:35:14.356Z,22.60
2022-08-21T09:37:53.677Z,22.70
2022-08-21T09:40:37.910Z,22.80
2022-08-21T09:43:22.910Z,22.90
2022-08-21T09:46:06.656Z,22.70
2022-08-21T09:48:47.778Z,23.10
2022-08-21T09:51:25.872Z,23.10
2022-08-21T09:53:57.328Z,23.20
2022-08-21T09:56:52.593Z,22.10
2022-08-21T09:59:37.133Z,23.60
2022-08-21T10:02:35.627Z,22.40
2022-08-21T10:05:17.731Z,23.80
2022-08-21T10:10:38.824Z,24.10
2022-08-21T10:13:29.972Z,26.00
2022-08-21T10:16:18.250Z,24.30
2022-08-21T10:19:14.867Z,24.40
2022-08-21T10:22:17.971Z,23.90
2022-08-21T10:25:09.615Z,24.90
2022-08-21T10:28:13.510Z,24.80
2022-08-21T10:36:00.354Z,24.70
2022-08-21T10:39:26.435Z,24.80
2022-08-21T10:42:35.660Z,25.70
2022-08-21T10:47:58.184Z,23.10
2022-08-21T10:51:15.000Z,22.70
2022-08-21T10:54:19.176Z,24.90
2022-08-21T10:57:02.235Z,23.10
2022-08-21T11:00:00.796Z,23.30
2022-08-21T11:02:38.025Z,24.20
2022-08-21T11:05:31.974Z,25.00
2022-08-21T11:08:13.430Z,24.10
2022-08-21T11:11:00.030Z,24.10
2022-08-21T11:14:02.283Z,24.10
2022-08-21T11:16:54.470Z,24.10
2022-08-21T11:19:36.638Z,24.10
2022-08-21T11:22:29.969Z,24.10
2022-08-21T11:27:47.728Z,25.80
2022-08-21T11:30:15.518Z,25.20
2022-08-21T11:33:12.660Z,24.20
2022-08-21T11:35:49.179Z,23.60
2022-08-21T11:38:35.699Z,24.50
2022-08-21T11:41:26.427Z,25.10
2022-08-21T11:44:05.330Z,23.30
2022-08-21T11:46:50.698Z,24.70
2022-08-21T11:49:42.192Z,25.60
2022-08-21T11:52:21.562Z,24.60
2022-08-21T11:55:04.001Z,24.60
2022-08-21T11:58:00.970Z,24.50
2022-08-21T12:00:39.927Z,24.50
2022-08-21T12:03:25.256Z,24.60
2022-08-21T12:06:05.233Z,24.20
2022-08-21T12:11:18.525Z,24.50
2022-08-21T12:14:05.887Z,24.50
2022-08-21T12:16:37.957Z,24.40
2022-08-21T12:24:15.672Z,24.60
2022-08-21T12:26:57.665Z,24.20
2022-08-21T12:29:32.793Z,24.60
2022-08-21T12:32:25.454Z,25.20
2022-08-21T12:35:24.547Z,25.30
2022-08-21T12:38:10.512Z,24.50
2022-08-21T12:40:55.905Z,24.90
2022-08-21T12:43:31.835Z,24.60
2022-08-21T12:49:16.216Z,24.20
2022-08-21T12:52:14.078Z,24.90
2022-08-21T12:54:45.176Z,25.20
2022-08-21T12:57:28.829Z,24.50
2022-08-21T13:00:01.779Z,24.20
2022-08-21T13:02:41.281Z,24.50
2022-08-21T13:05:14.895Z,24.10
2022-08-21T13:07:49.596Z,23.80
2022-08-21T13:10:25.058Z,24.10
2022-08-21T13:12:58.709Z,23.90
2022-08-21T13:15:33.691Z,24.40
2022-08-21T13:18:04.313Z,24.40
2022-08-21T13:20:38.554Z,23.80
2022-08-21T13:23:29.926Z,23.80
2022-08-21T13:25:58.691Z,23.70
2022-08-21T13:28:38.423Z,23.10
2022-08-21T13:31:11.332Z,23.70
2022-08-21T13:33:41.972Z,22.80
2022-08-21T13:36:14.901Z,24.50
2022-08-21T13:38:44.896Z,22.40
2022-08-21T13:41:17.795Z,22.10
2022-08-21T13:44:00.154Z,24.10
2022-08-21T13:46:35.384Z,23.40
2022-08-21T13:49:05.573Z,24.00
2022-08-21T13:51:34.388Z,23.40
2022-08-21T13:56:44.575Z,23.90
2022-08-21T13:59:12.458Z,23.00
2022-08-21T14:02:11.421Z,22.80
2022-08-21T14:04:53.317Z,23.40
2022-08-21T14:07:36.627Z,23.50
2022-08-21T14:10:19.468Z,22.90
2022-08-21T14:12:53.612Z,22.80
2022-08-21T14:15:29.667Z,23.90
2022-08-21T14:18:19.452Z,21.70
2022-08-21T14:20:47.038Z,22.70
2022-08-21T14:23:26.997Z,24.10
2022-08-21T14:28:35.297Z,21.20
2022-08-21T14:31:30.235Z,23.80
2022-08-21T14:33:58.331Z,22.60
2022-08-21T14:36:25.536Z,21.50
2022-08-21T14:38:53.188Z,23.60
2022-08-21T14:41:25.136Z,22.20
2022-08-21T14:56:26.819Z,22.20
2022-08-21T14:58:57.037Z,21.20
2022-08-21T15:01:24.935Z,21.90
2022-08-21T15:08:50.637Z,22.50
2022-08-21T15:11:41.690Z,22.40
2022-08-21T15:14:20.894Z,21.80
2022-08-21T15:16:50.191Z,22.10
2022-08-21T15:21:45.225Z,23.00
2022-08-21T15:24:12.403Z,23.30
2022-08-21T15:26:39.738Z,22.50
2022-08-21T15:29:09.415Z,22.30
2022-08-21T15:41:41.484Z,22.20
2022-08-21T15:44:12.741Z,22.40
2022-08-21T15:46:41.517Z,22.10
2022-08-21T15:49:09.443Z,22.50
2022-08-21T15:56:41.908Z,20.40
2022-08-21T15:59:18.003Z,21.30
2022-08-21T16:01:47.165Z,21.50
2022-08-21T16:04:27.960Z,21.40
2022-08-21T16:07:01.036Z,21.60
2022-08-21T16:09:31.183Z,21.60
2022-08-21T16:12:01.743Z,20.40
2022-08-21T16:14:31.798Z,21.10
2022-08-21T16:19:29.981Z,20.50
2022-08-21T16:21:58.042Z,20.70
2022-08-21T16:24:25.287Z,20.10
2022-08-21T16:29:30.878Z,22.80
2022-08-21T16:31:58.438Z,20.20
2022-08-21T16:34:27.931Z,21.30
2022-08-21T16:36:55.992Z,20.50
2022-08-21T16:41:51.944Z,20.30
2022-08-21T16:44:22.224Z,20.80
2022-08-21T16:46:52.745Z,20.70
2022-08-21T16:49:20.092Z,20.60
2022-08-21T16:54:16.122Z,20.70
2022-08-21T16:59:15.333Z,20.80
2022-08-21T17:01:46.074Z,20.30
2022-08-21T17:06:42.429Z,20.30
2022-08-21T17:11:47.697Z,20.10
2022-08-21T17:14:23.371Z,20.00
2022-08-21T17:16:55.822Z,19.80
2022-08-21T17:19:23.706Z,20.00
2022-08-21T17:24:18.990Z,20.70
2022-08-21T17:29:25.657Z,20.60
2022-08-21T17:34:26.223Z,19.70
2022-08-21T17:36:58.566Z,19.60
2022-08-21T17:42:00.345Z,20.00
2022-08-21T17:46:57.023Z,20.30
2022-08-21T17:51:53.441Z,20.50
2022-08-21T18:01:47.583Z,19.60
2022-08-21T18:04:16.970Z,19.70
2022-08-21T18:06:45.962Z,19.60
2022-08-21T18:16:43.723Z,19.50
2022-08-21T18:19:21.826Z,19.50
2022-08-21T18:24:22.222Z,20.50
2022-08-21T18:26:51.637Z,20.80
2022-08-21T18:29:23.462Z,20.50
2022-08-21T18:31:51.261Z,20.40
2022-08-21T18:34:30.307Z,17.80
2022-08-21T18:36:58.404Z,20.80
2022-08-21T18:39:36.972Z,19.60
2022-08-21T18:42:13.655Z,19.70
2022-08-21T18:44:48.979Z,19.80
2022-08-21T18:47:26.815Z,19.70
2022-08-21T18:49:55.522Z,19.50
2022-08-21T18:54:57.415Z,20.20
2022-08-21T18:57:30.559Z,18.60
2022-08-21T19:02:29.146Z,18.90
2022-08-21T19:04:57.334Z,20.60
2022-08-21T19:10:29.542Z,20.50
2022-08-21T19:13:01.289Z,19.60
2022-08-21T19:18:00.144Z,19.60
2022-08-21T19:20:37.801Z,19.50
2022-08-21T19:23:08.676Z,19.70
2022-08-21T19:25:42.402Z,19.90
2022-08-21T19:28:30.162Z,19.60
2022-08-21T19:31:07.685Z,19.40
2022-08-21T19:33:44.280Z,19.30
2022-08-21T19:36:16.796Z,19.40
2022-08-21T19:38:45.358Z,20.00
2022-08-21T19:41:17.693Z,18.10
2022-08-21T19:43:52.500Z,19.90
2022-08-21T19:46:35.446Z,19.10
2022-08-21T19:49:08.886Z,18.90
2022-08-21T19:54:10.872Z,18.50
2022-08-21T19:59:09.335Z,18.60
2022-08-21T20:04:24.564Z,19.20
2022-08-21T20:06:56.392Z,18.60
2022-08-21T20:09:26.876Z,18.60
2022-08-21T20:11:58.645Z,18.90
2022-08-21T20:14:32.577Z,18.60
2022-08-21T20:17:10.969Z,18.70
2022-08-21T20:19:41.094Z,18.70
2022-08-21T20:22:09.888Z,18.80
2022-08-21T20:24:37.030Z,18.10
2022-08-21T20:27:06.380Z,18.30
2022-08-21T20:29:39.238Z,18.50
2022-08-21T20:40:11.844Z,18.40
2022-08-21T20:42:44.661Z,18.60
2022-08-21T20:45:20.459Z,19.70
2022-08-21T20:50:26.313Z,19.10
2022-08-21T20:53:05.738Z,18.60
2022-08-21T20:55:37.413Z,18.60
2022-08-21T20:58:13.810Z,18.50
2022-08-21T21:00:43.962Z,18.80
2022-08-21T21:03:35.224Z,18.60
2022-08-21T21:06:09.813Z,19.00
2022-08-21T21:09:01.772Z,18.60
2022-08-21T21:11:45.251Z,18.60
2022-08-21T21:14:39.345Z,18.60
2022-08-21T21:20:17.060Z,18.50
2022-08-21T21:23:01.257Z,19.10
2022-08-21T21:25:45.604Z,18.50
2022-08-21T21:28:36.235Z,20.00
2022-08-21T21:33:31.550Z,18.40
2022-08-21T21:37:04.529Z,18.40
2022-08-21T21:40:18.293Z,18.40
2022-08-21T21:46:03.464Z,18.50
2022-08-21T21:49:12.131Z,18.30
2022-08-21T21:52:12.873Z,18.50
2022-08-21T21:55:23.947Z,18.10
2022-08-21T21:58:26.525Z,19.50
2022-08-21T22:01:21.162Z,18.30
2022-08-21T22:03:58.586Z,17.50
2022-08-21T22:06:51.412Z,18.20
2022-08-21T22:09:52.230Z,19.50
2022-08-21T22:12:49.626Z,18.20
2022-08-21T22:15:26.443Z,17.40
2022-08-21T22:18:18.390Z,18.30
2022-08-21T22:21:03.638Z,18.00
2022-08-21T22:23:54.490Z,18.30
2022-08-21T22:26:48.369Z,18.80
2022-08-21T22:29:23.085Z,18.20
2022-08-21T22:32:10.632Z,18.70
2022-08-21T22:37:12.173Z,19.90
2022-08-21T22:39:46.463Z,18.20
2022-08-21T22:42:27.577Z,17.90
2022-08-21T22:45:02.279Z,18.20
2022-08-21T22:47:41.594Z,18.20
2022-08-21T22:50:33.940Z,18.00
2022-08-21T22:53:09.126Z,18.40
2022-08-21T22:55:52.947Z,18.30
2022-08-21T22:58:25.121Z,19.00
2022-08-21T23:01:33.717Z,18.20
2022-08-21T23:04:22.924Z,17.60
2022-08-21T23:06:55.414Z,18.70
2022-08-21T23:09:28.246Z,18.10
2022-08-21T23:12:21.675Z,18.10
2022-08-21T23:14:54.709Z,18.30
2022-08-21T23:18:01.193Z,18.30
2022-08-21T23:23:54.989Z,18.30
2022-08-21T23:26:52.162Z,18.70
2022-08-21T23:30:02.146Z,18.30
2022-08-21T23:33:03.164Z,18.60
2022-08-21T23:36:15.414Z,18.10
2022-08-21T23:39:06.821Z,17.50
2022-08-21T23:42:05.176Z,18.40
2022-08-21T23:45:13.878Z,17.10
2022-08-21T23:47:55.256Z,18.30
2022-08-21T23:50:42.639Z,18.70
2022-08-21T23:56:06.046Z,19.10
2022-08-21T23:58:59.339Z,18.30
